Hamburg, South Africa
Current Conditions -  °F | °C
As of 12:22 PM on Tuesday 21 Oct 2014 (Local Time) from FAEL Reporting Station
Broken Clouds Broken Clouds  
Wind Chill: 68°   Ceiling: 1300
Heat Index: 68°   Visibility: 6mi
Dew Point: 61°   Wind: 21mph
Humidity: 78%   Direction: 90°E
Pressure: 30.18"   Gusts: NA
Location:  33.29°S, 27.46°E
Report Text: FAEL 211022Z 09018KT 9999 BKN013 BKN020 BKN036 20/16 Q1022
Loading
Personal Weather Stations






























Interactive Weather Map
Tropical Storm Tracking
New forecast layout! Learn more

10-Day Weather Forecast

Advertisements
Track Severe Weather on mobile